Time;durP1;ratioP1;P1;durP2;ratioP2;P2;SDS_P1;SDS_P2;PMS_P1;PMS_P2;Temp;Humidity;BMP_temperature;BMP_pressure;BME280_temperature;BME280_humidity;BME280_pressure;Samples;Min_cycle;Max_cycle;Signal;HPM_P1;HPM_P2
2021/01/23 00:01:00;;;;;;;20.98;11.75;;;3.20;99.90;;;;;;4929228;29;20024;-45
2021/01/23 00:03:25;;;;;;;18.08;10.55;;;3.20;99.90;;;;;;4929125;29;20079;-46
2021/01/23 00:05:51;;;;;;;24.48;11.27;;;3.20;99.90;;;;;;4928346;29;20387;-44
2021/01/23 00:08:16;;;;;;;17.05;10.10;;;3.20;99.90;;;;;;4929118;29;20110;-44
2021/01/23 00:10:43;;;;;;;18.85;10.98;;;3.10;99.90;;;;;;4919933;29;20046;-44
2021/01/23 00:13:08;;;;;;;17.02;10.70;;;3.10;99.90;;;;;;4942333;28;20097;-45
2021/01/23 00:15:34;;;;;;;16.75;9.82;;;3.10;99.90;;;;;;4973233;28;20031;-46
2021/01/23 00:17:59;;;;;;;18.33;9.30;;;3.00;99.90;;;;;;4973347;28;20110;-46
2021/01/23 00:20:25;;;;;;;16.40;9.70;;;2.90;99.90;;;;;;4973563;28;20603;-45
2021/01/23 00:22:50;;;;;;;15.65;8.68;;;2.90;99.90;;;;;;4973457;28;20034;-46
2021/01/23 00:25:16;;;;;;;14.05;8.85;;;2.90;99.90;;;;;;4972826;28;20575;-46
2021/01/23 00:27:41;;;;;;;17.50;9.93;;;2.90;99.90;;;;;;4992789;28;20628;-46
2021/01/23 00:30:08;;;;;;;15.07;9.90;;;2.90;99.90;;;;;;4993061;28;20026;-46
2021/01/23 00:32:34;;;;;;;17.13;10.13;;;2.90;99.90;;;;;;4992924;28;20113;-46
2021/01/23 00:34:59;;;;;;;14.93;10.77;;;2.90;99.90;;;;;;4985628;28;20114;-45
2021/01/23 00:37:25;;;;;;;15.00;10.07;;;2.90;99.90;;;;;;4990640;28;20062;-45
2021/01/23 00:39:51;;;;;;;13.55;8.95;;;2.80;99.90;;;;;;4991874;28;20034;-45
2021/01/23 00:42:16;;;;;;;15.63;9.32;;;2.80;99.90;;;;;;4991450;28;20026;-47
2021/01/23 00:44:42;;;;;;;21.63;11.43;;;2.80;99.90;;;;;;4989755;28;20479;-46
2021/01/23 00:47:07;;;;;;;22.50;11.60;;;2.80;99.90;;;;;;4990567;28;20030;-45
2021/01/23 00:49:33;;;;;;;17.20;10.13;;;2.80;99.90;;;;;;4991153;28;20058;-46
2021/01/23 00:51:58;;;;;;;21.98;11.88;;;2.80;99.90;;;;;;4990947;28;20038;-47
2021/01/23 00:54:24;;;;;;;18.60;10.88;;;2.80;99.90;;;;;;4988745;28;20647;-45
2021/01/23 00:56:49;;;;;;;20.55;10.07;;;2.80;99.90;;;;;;4990509;28;20033;-45
2021/01/23 00:59:15;;;;;;;17.33;10.70;;;2.70;99.90;;;;;;4976279;28;20033;-47
2021/01/23 01:01:40;;;;;;;19.90;11.20;;;2.70;99.90;;;;;;4973189;28;20031;-47
2021/01/23 01:04:05;;;;;;;16.95;10.55;;;2.70;99.90;;;;;;4973300;28;20023;-49
2021/01/23 01:06:31;;;;;;;16.20;10.30;;;2.60;99.90;;;;;;4972438;28;20054;-47
2021/01/23 01:08:57;;;;;;;17.35;11.05;;;2.60;99.90;;;;;;4973028;28;20035;-46
2021/01/23 01:11:22;;;;;;;18.60;11.23;;;2.60;99.90;;;;;;4974807;28;20116;-46
2021/01/23 01:13:47;;;;;;;20.42;11.55;;;2.60;99.90;;;;;;5006126;28;20060;-46
2021/01/23 01:16:13;;;;;;;19.08;11.30;;;2.70;99.90;;;;;;5010858;28;20038;-46
2021/01/23 01:18:38;;;;;;;20.27;11.45;;;2.60;99.90;;;;;;5011494;28;20030;-46
2021/01/23 01:21:04;;;;;;;17.65;11.32;;;2.60;99.90;;;;;;5013873;28;20033;-46
2021/01/23 01:23:29;;;;;;;20.48;11.70;;;2.60;99.90;;;;;;5020761;28;20017;-46
2021/01/23 01:25:55;;;;;;;17.67;10.75;;;2.60;99.90;;;;;;5021416;28;20024;-45
2021/01/23 01:28:21;;;;;;;20.95;11.20;;;2.60;99.90;;;;;;5019460;28;20353;-48
2021/01/23 01:30:46;;;;;;;17.25;10.60;;;2.60;99.90;;;;;;5018797;28;20021;-45
2021/01/23 01:33:12;;;;;;;17.00;10.10;;;2.60;99.90;;;;;;5020711;28;20021;-46
2021/01/23 01:35:37;;;;;;;16.23;9.68;;;2.60;99.90;;;;;;5018411;28;20039;-45
2021/01/23 01:38:03;;;;;;;16.38;10.20;;;2.50;99.90;;;;;;5019074;28;20439;-47
2021/01/23 01:40:28;;;;;;;22.42;10.90;;;2.50;99.90;;;;;;5020243;28;21073;-45
2021/01/23 01:42:55;;;;;;;18.00;10.77;;;2.50;99.90;;;;;;5020086;28;20234;-48
2021/01/23 01:45:21;;;;;;;16.48;9.40;;;2.50;99.90;;;;;;5018604;28;20426;-46
2021/01/23 01:47:47;;;;;;;17.00;10.43;;;2.50;99.90;;;;;;5018537;28;20022;-46
2021/01/23 01:50:13;;;;;;;18.52;10.52;;;2.40;99.90;;;;;;5020360;28;20075;-48
2021/01/23 01:52:40;;;;;;;20.58;11.23;;;2.40;99.90;;;;;;5018794;28;20511;-47
2021/01/23 01:55:06;;;;;;;23.80;12.82;;;2.40;99.90;;;;;;5017847;28;20070;-46
2021/01/23 01:57:32;;;;;;;20.77;11.80;;;2.40;99.90;;;;;;5023900;28;20037;-45
2021/01/23 01:59:57;;;;;;;24.52;14.45;;;2.40;99.90;;;;;;5029120;28;20102;-44
2021/01/23 02:02:55;;;;;;;23.90;12.73;;;2.50;99.90;;;;;;5029290;28;20033;-46
2021/01/23 02:05:30;;;;;;;19.60;11.75;;;2.50;99.90;;;;;;5028832;28;20025;-46
2021/01/23 02:08:19;;;;;;;22.45;13.60;;;2.50;99.90;;;;;;5029124;28;20021;-46
2021/01/23 02:11:05;;;;;;;22.67;12.02;;;2.50;99.90;;;;;;5029076;28;20017;-46
2021/01/23 02:13:34;;;;;;;19.40;10.80;;;2.50;99.90;;;;;;5054745;28;20044;-46
2021/01/23 02:19:36;;;;;;;14.07;9.55;;;2.50;99.90;;;;;;5028884;28;20092;-47
2021/01/23 02:22:32;;;;;;;17.50;10.13;;;2.50;99.90;;;;;;5027523;28;20021;-47
2021/01/23 02:24:58;;;;;;;22.83;11.15;;;2.50;99.90;;;;;;5026854;28;20071;-46
2021/01/23 02:27:51;;;;;;;18.80;11.10;;;2.50;99.90;;;;;;5028045;28;20079;-46
2021/01/23 02:30:21;;;;;;;22.05;11.05;;;2.50;99.90;;;;;;5028841;28;20582;-46
2021/01/23 02:32:49;;;;;;;21.67;11.35;;;2.40;99.90;;;;;;5028717;28;20037;-47
2021/01/23 02:35:17;;;;;;;24.42;12.20;;;2.40;99.90;;;;;;5028217;28;20083;-45
2021/01/23 02:37:44;;;;;;;22.02;12.77;;;2.40;99.90;;;;;;5028694;28;20579;-45
2021/01/23 02:40:11;;;;;;;20.63;12.27;;;2.50;99.90;;;;;;5028940;28;20030;-46
2021/01/23 02:42:37;;;;;;;22.60;12.25;;;2.40;99.90;;;;;;5027117;28;20021;-45
2021/01/23 02:45:08;;;;;;;21.95;11.85;;;2.50;99.90;;;;;;5028082;28;20121;-45
2021/01/23 02:47:33;;;;;;;;;;;2.50;99.90;;;;;;5029102;28;20017;-46
2021/01/23 02:49:59;;;;;;;17.65;9.52;;;2.50;99.90;;;;;;5028583;28;20422;-46
2021/01/23 02:52:47;;;;;;;17.33;10.30;;;2.50;99.90;;;;;;5028468;28;20026;-44
2021/01/23 02:55:19;;;;;;;21.85;11.18;;;2.50;99.90;;;;;;5027907;28;20036;-45
2021/01/23 02:57:48;;;;;;;19.02;11.10;;;2.50;99.90;;;;;;5028214;28;20087;-45
2021/01/23 03:00:15;;;;;;;19.50;11.05;;;2.50;99.90;;;;;;5028582;28;20068;-44
2021/01/23 03:02:49;;;;;;;19.02;10.25;;;2.50;99.90;;;;;;5028361;28;20030;-45
2021/01/23 03:05:16;;;;;;;21.83;11.90;;;2.50;99.90;;;;;;5042994;28;20059;-46
2021/01/23 03:07:42;;;;;;;17.92;10.15;;;2.50;99.90;;;;;;5028571;28;20026;-44
2021/01/23 03:10:08;;;;;;;18.38;10.32;;;2.50;99.90;;;;;;5028397;28;20303;-49
2021/01/23 03:12:34;;;;;;;17.90;10.82;;;2.50;99.90;;;;;;5027648;28;20394;-46
2021/01/23 03:15:00;;;;;;;19.42;11.15;;;2.50;99.90;;;;;;5027192;28;20033;-45
2021/01/23 03:17:26;;;;;;;20.77;11.90;;;2.50;99.90;;;;;;5028164;28;20029;-44
2021/01/23 03:19:52;;;;;;;21.88;11.68;;;2.50;99.90;;;;;;5028316;28;20034;-46
2021/01/23 03:22:17;;;;;;;27.75;14.38;;;2.50;99.90;;;;;;5026857;28;20029;-46
2021/01/23 03:24:43;;;;;;;20.35;12.15;;;2.50;99.90;;;;;;5027627;28;20030;-46
2021/01/23 03:27:09;;;;;;;21.88;13.20;;;2.60;99.90;;;;;;5028072;28;20026;-45
2021/01/23 03:29:34;;;;;;;25.10;14.43;;;2.60;99.90;;;;;;5028142;28;20026;-45
2021/01/23 03:32:00;;;;;;;26.52;13.77;;;2.60;99.90;;;;;;5028060;28;20033;-44
2021/01/23 03:34:25;;;;;;;26.50;13.73;;;2.60;99.90;;;;;;5027673;28;20028;-47
2021/01/23 03:36:51;;;;;;;27.92;14.23;;;2.70;99.90;;;;;;5027759;28;20113;-46
2021/01/23 03:39:16;;;;;;;27.25;13.70;;;2.70;99.90;;;;;;5026762;28;20029;-47
2021/01/23 03:41:42;;;;;;;26.10;14.15;;;2.60;99.90;;;;;;5028078;28;20414;-46
2021/01/23 03:44:07;;;;;;;26.58;13.65;;;2.60;99.90;;;;;;5028096;28;20025;-46
2021/01/23 03:46:33;;;;;;;30.55;15.05;;;2.60;99.90;;;;;;5030173;28;20037;-46
2021/01/23 03:48:59;;;;;;;29.15;14.02;;;2.60;99.90;;;;;;5031573;28;20033;-45
2021/01/23 03:51:25;;;;;;;24.10;14.05;;;2.70;99.90;;;;;;5031912;28;20340;-45
2021/01/23 03:53:50;;;;;;;27.27;14.43;;;2.60;99.90;;;;;;5014142;28;20119;-48
2021/01/23 03:56:16;;;;;;;24.40;13.50;;;2.60;99.90;;;;;;5029703;28;20029;-46
2021/01/23 03:58:41;;;;;;;26.55;14.85;;;2.70;99.90;;;;;;5031275;28;20033;-46
2021/01/23 04:01:07;;;;;;;26.27;14.23;;;2.70;99.90;;;;;;5031550;28;20259;-46
2021/01/23 04:03:32;;;;;;;26.45;15.07;;;2.70;99.90;;;;;;5031528;28;20068;-47
2021/01/23 04:05:58;;;;;;;29.20;14.80;;;2.70;99.90;;;;;;5030841;28;20037;-44
2021/01/23 04:08:23;;;;;;;27.63;15.40;;;2.70;99.90;;;;;;5031343;28;20065;-46
2021/01/23 04:10:49;;;;;;;28.98;14.77;;;2.80;99.90;;;;;;5031552;28;20037;-45
2021/01/23 04:13:15;;;;;;;26.80;14.55;;;2.80;99.90;;;;;;5031015;28;20034;-45
2021/01/23 04:15:40;;;;;;;26.65;13.82;;;2.80;99.90;;;;;;5030612;28;20402;-45
2021/01/23 04:18:06;;;;;;;28.75;14.57;;;2.70;99.90;;;;;;5029758;28;20029;-45
2021/01/23 04:20:33;;;;;;;25.60;13.18;;;2.80;99.90;;;;;;5031434;28;20163;-45
2021/01/23 04:22:58;;;;;;;24.02;13.48;;;2.80;99.90;;;;;;5031300;28;20638;-46
2021/01/23 04:25:24;;;;;;;28.15;14.05;;;2.80;99.90;;;;;;5029078;28;20029;-45
2021/01/23 04:27:49;;;;;;;29.08;14.98;;;2.80;99.90;;;;;;5030749;28;20040;-44
2021/01/23 04:30:15;;;;;;;24.95;13.95;;;2.90;99.90;;;;;;5031054;28;20036;-45
2021/01/23 04:32:42;;;;;;;24.00;13.98;;;2.90;99.90;;;;;;5030837;28;20530;-48
2021/01/23 04:35:10;;;;;;;23.77;13.65;;;2.90;99.90;;;;;;5030496;28;20036;-45
2021/01/23 04:37:37;;;;;;;24.85;12.45;;;2.90;99.90;;;;;;5030749;28;20032;-46
2021/01/23 04:40:05;;;;;;;23.83;13.38;;;2.90;99.90;;;;;;5030995;28;20287;-46
2021/01/23 04:42:30;;;;;;;26.02;13.65;;;2.80;99.90;;;;;;5030495;28;20088;-45
2021/01/23 04:44:56;;;;;;;22.60;13.27;;;2.90;99.90;;;;;;5029925;28;20026;-46
2021/01/23 04:47:21;;;;;;;23.92;14.38;;;2.90;99.90;;;;;;5030661;28;20025;-44
2021/01/23 04:49:47;;;;;;;23.77;13.02;;;2.90;99.90;;;;;;5030684;28;20034;-47
2021/01/23 04:52:14;;;;;;;29.40;14.45;;;2.90;99.90;;;;;;5030959;28;20030;-45
2021/01/23 04:54:43;;;;;;;27.95;14.00;;;2.90;99.90;;;;;;5029885;28;20021;-44
2021/01/23 04:57:08;;;;;;;28.00;14.65;;;2.90;99.90;;;;;;5030253;28;20041;-47
2021/01/23 04:59:34;;;;;;;28.02;14.52;;;2.90;99.90;;;;;;5030380;28;20056;-46
2021/01/23 05:02:21;;;;;;;25.40;13.73;;;2.90;99.90;;;;;;5030394;28;20459;-45
2021/01/23 05:04:48;;;;;;;21.88;13.27;;;2.90;99.90;;;;;;5029754;28;20025;-45
2021/01/23 05:07:43;;;;;;;27.15;14.77;;;2.90;99.90;;;;;;5030916;28;20025;-44
2021/01/23 05:10:17;;;;;;;22.40;13.43;;;2.90;99.90;;;;;;5025379;28;20304;-45
2021/01/23 05:12:48;;;;;;;27.67;13.50;;;2.90;99.90;;;;;;5029844;28;20103;-45
2021/01/23 05:15:23;;;;;;;26.15;15.35;;;2.90;99.90;;;;;;5029463;28;20299;-45
2021/01/23 05:17:52;;;;;;;24.05;13.52;;;2.90;99.90;;;;;;5030103;28;20065;-44
2021/01/23 05:20:36;;;;;;;25.80;14.38;;;2.90;99.90;;;;;;5029874;28;20029;-44
2021/01/23 05:23:20;;;;;;;22.48;13.32;;;2.90;99.90;;;;;;5030094;28;20021;-45
2021/01/23 05:25:51;;;;;;;26.30;15.43;;;2.90;99.90;;;;;;5029303;28;20032;-45
2021/01/23 05:28:34;;;;;;;26.70;14.20;;;2.90;99.90;;;;;;5029008;28;20159;-47
2021/01/23 05:31:01;;;;;;;28.45;14.38;;;2.90;99.90;;;;;;5029753;28;20418;-45
2021/01/23 05:33:32;;;;;;;28.50;13.82;;;2.90;99.90;;;;;;5029905;28;20025;-46
2021/01/23 05:36:12;;;;;;;24.55;13.38;;;3.00;99.90;;;;;;5029141;28;20071;-45
2021/01/23 05:38:42;;;;;;;23.38;14.13;;;3.00;99.90;;;;;;5029848;28;20052;-46
2021/01/23 05:41:11;;;;;;;31.90;16.15;;;3.00;99.90;;;;;;5029810;28;20033;-45
2021/01/23 05:43:44;;;;;;;30.55;15.02;;;3.00;99.90;;;;;;5029387;28;20048;-45
2021/01/23 05:46:10;;;;;;;27.85;15.18;;;3.00;99.90;;;;;;5027675;28;20024;-45
2021/01/23 05:48:44;;;;;;;33.58;16.25;;;2.90;99.90;;;;;;5029727;28;20670;-45
2021/01/23 05:51:10;;;;;;;29.20;15.27;;;3.00;99.90;;;;;;5029649;28;20029;-46
2021/01/23 05:53:35;;;;;;;31.13;15.38;;;3.00;99.90;;;;;;5029540;28;20022;-45
2021/01/23 05:56:02;;;;;;;34.25;16.42;;;3.00;99.90;;;;;;5029254;28;20486;-45
2021/01/23 05:58:30;;;;;;;33.45;15.80;;;3.00;99.90;;;;;;5029273;28;20260;-45
2021/01/23 06:00:57;;;;;;;29.17;14.63;;;3.00;99.90;;;;;;5029284;28;20499;-48
2021/01/23 06:03:26;;;;;;;30.23;14.77;;;3.00;99.90;;;;;;5029353;28;20056;-44
2021/01/23 06:05:55;;;;;;;29.10;16.40;;;3.00;99.90;;;;;;5028720;28;20022;-46
2021/01/23 06:08:58;;;;;;;32.00;16.20;;;3.10;99.90;;;;;;5028786;28;20628;-47
2021/01/23 06:11:23;;;;;;;27.20;15.80;;;3.00;99.90;;;;;;5029330;28;20560;-47
2021/01/23 06:13:48;;;;;;;28.73;15.45;;;3.00;99.90;;;;;;5022014;28;20114;-46
2021/01/23 06:16:34;;;;;;;27.75;14.45;;;3.00;99.90;;;;;;5028507;28;20025;-47
2021/01/23 06:19:06;;;;;;;26.10;14.85;;;3.00;99.90;;;;;;5028889;28;20068;-46
2021/01/23 06:21:48;;;;;;;26.85;14.48;;;3.10;99.90;;;;;;5029012;28;20060;-47
2021/01/23 06:24:15;;;;;;;28.80;15.50;;;3.10;99.90;;;;;;5028918;28;20506;-45
2021/01/23 06:26:53;;;;;;;27.45;14.90;;;3.00;99.90;;;;;;5027918;28;20018;-44
2021/01/23 06:29:41;;;;;;;32.55;16.13;;;3.10;99.90;;;;;;5028530;28;20532;-45
2021/01/23 06:32:13;;;;;;;27.23;14.85;;;3.10;99.90;;;;;;5044052;28;20430;-45
2021/01/23 06:34:50;;;;;;;32.30;15.52;;;3.10;99.90;;;;;;5028488;28;20060;-45
2021/01/23 06:37:29;;;;;;;29.65;16.10;;;3.10;99.90;;;;;;5044043;28;20112;-45
2021/01/23 06:40:04;;;;;;;34.42;16.10;;;3.10;99.90;;;;;;5028573;28;20478;-45
2021/01/23 06:42:30;;;;;;;30.42;15.05;;;3.00;99.90;;;;;;5028330;28;20298;-45
2021/01/23 06:44:55;;;;;;;27.67;14.55;;;3.00;99.90;;;;;;5027708;28;20025;-46
2021/01/23 06:47:21;;;;;;;26.90;13.98;;;3.00;99.90;;;;;;5028034;28;20027;-51
2021/01/23 06:49:46;;;;;;;28.15;15.77;;;3.00;99.90;;;;;;5028134;28;20170;-46
2021/01/23 06:52:12;;;;;;;26.40;15.25;;;2.90;99.90;;;;;;5028789;28;20029;-47
2021/01/23 06:54:38;;;;;;;30.48;16.23;;;2.90;99.90;;;;;;5027797;28;20029;-46
2021/01/23 06:57:05;;;;;;;32.60;17.35;;;2.80;99.90;;;;;;5028227;28;20033;-45
2021/01/23 06:59:32;;;;;;;30.17;15.73;;;2.70;99.90;;;;;;5028516;28;20478;-45
2021/01/23 07:01:59;;;;;;;44.33;15.77;;;2.70;99.90;;;;;;5028388;28;20025;-45
2021/01/23 07:04:26;;;;;;;36.15;16.13;;;2.60;99.90;;;;;;5027824;28;20021;-45
2021/01/23 07:06:53;;;;;;;30.33;15.85;;;2.60;99.90;;;;;;5028633;28;20055;-48
2021/01/23 07:09:19;;;;;;;30.73;16.38;;;2.60;99.90;;;;;;5028356;28;20036;-49
2021/01/23 07:11:45;;;;;;;30.35;16.42;;;2.50;99.90;;;;;;5028420;28;20375;-46
2021/01/23 07:14:12;;;;;;;35.55;16.85;;;2.50;99.90;;;;;;5027955;28;20056;-46
2021/01/23 07:16:39;;;;;;;36.38;17.60;;;2.40;99.90;;;;;;5026177;28;20037;-46
2021/01/23 07:19:06;;;;;;;33.78;17.52;;;2.50;99.90;;;;;;5028216;28;20067;-47
2021/01/23 07:21:40;;;;;;;35.60;17.33;;;2.50;99.90;;;;;;5029473;28;20040;-45
2021/01/23 07:24:07;;;;;;;36.08;17.83;;;2.50;99.90;;;;;;5025739;28;20114;-47
2021/01/23 07:26:33;;;;;;;29.77;16.02;;;2.50;99.90;;;;;;5027068;28;20071;-46
2021/01/23 07:28:59;;;;;;;30.52;17.25;;;2.50;99.90;;;;;;5025796;28;20041;-45
2021/01/23 07:31:32;;;;;;;35.95;17.10;;;2.60;99.90;;;;;;5026082;28;20327;-45
2021/01/23 07:34:12;;;;;;;33.15;17.50;;;2.60;99.90;;;;;;5031990;28;20032;-48
2021/01/23 07:36:40;;;;;;;32.90;16.60;;;2.60;99.90;;;;;;5028106;28;20108;-45
2021/01/23 07:39:10;;;;;;;34.25;17.50;;;2.60;99.90;;;;;;5030909;28;20033;-45
2021/01/23 07:41:37;;;;;;;;;;;2.60;99.90;;;;;;5020030;28;20113;-44
2021/01/23 07:44:06;;;;;;;33.33;17.48;;;2.60;99.90;;;;;;5019492;28;20412;-45
2021/01/23 07:46:33;;;;;;;31.67;16.55;;;2.60;99.90;;;;;;5019324;28;20025;-47
2021/01/23 07:48:59;;;;;;;33.05;16.77;;;2.60;99.90;;;;;;5011892;28;20030;-46
2021/01/23 07:51:26;;;;;;;35.25;17.45;;;2.60;99.90;;;;;;5011717;28;20018;-45
2021/01/23 07:54:08;;;;;;;39.25;17.90;;;2.60;99.90;;;;;;5011833;28;20435;-44
2021/01/23 07:56:34;;;;;;;31.70;18.00;;;2.60;99.90;;;;;;4996826;28;20056;-45
2021/01/23 07:59:00;;;;;;;28.17;15.38;;;2.70;99.90;;;;;;5031353;28;20033;-48
2021/01/23 08:01:26;;;;;;;28.02;15.95;;;2.80;99.90;;;;;;5031483;28;20057;-45
2021/01/23 08:03:53;;;;;;;32.78;17.13;;;2.80;99.90;;;;;;5031372;28;20079;-46
2021/01/23 08:06:20;;;;;;;32.97;16.55;;;2.90;99.90;;;;;;5030856;28;20033;-46
2021/01/23 08:08:47;;;;;;;29.98;16.70;;;2.90;99.90;;;;;;5031602;28;20048;-46
2021/01/23 08:11:36;;;;;;;26.52;15.63;;;2.90;99.90;;;;;;5030250;28;20036;-46
2021/01/23 08:14:14;;;;;;;33.28;18.02;;;2.90;99.90;;;;;;5003674;28;20034;-46
2021/01/23 08:16:50;;;;;;;27.35;14.90;;;3.00;99.90;;;;;;5001864;28;20467;-46
2021/01/23 08:19:17;;;;;;;31.60;16.33;;;3.00;99.90;;;;;;5002230;28;20381;-44
2021/01/23 08:22:03;;;;;;;28.15;15.32;;;3.00;99.90;;;;;;5001889;28;20180;-44
2021/01/23 08:24:29;;;;;;;27.67;15.35;;;3.10;99.90;;;;;;4999052;28;20286;-46
2021/01/23 08:27:14;;;;;;;31.15;15.23;;;3.20;99.90;;;;;;4998092;28;20090;-46
2021/01/23 08:29:43;;;;;;;31.25;16.40;;;3.20;99.90;;;;;;5003507;28;20432;-46
2021/01/23 08:32:10;;;;;;;32.45;15.82;;;3.20;99.90;;;;;;4999485;28;20034;-46
2021/01/23 08:34:35;;;;;;;28.70;15.65;;;3.20;99.90;;;;;;5001021;28;20088;-45
2021/01/23 08:37:02;;;;;;;29.40;15.95;;;3.30;99.90;;;;;;4992878;28;20022;-46
2021/01/23 08:39:27;;;;;;;32.40;16.90;;;3.30;99.90;;;;;;5010862;28;20057;-44
2021/01/23 08:41:54;;;;;;;29.13;15.95;;;3.30;99.90;;;;;;4993582;28;20050;-46
2021/01/23 08:44:20;;;;;;;33.03;16.92;;;3.40;99.90;;;;;;5010740;28;20075;-46
2021/01/23 08:46:45;;;;;;;32.95;16.52;;;3.40;99.90;;;;;;5009538;28;20026;-45
2021/01/23 08:49:11;;;;;;;29.67;17.15;;;3.40;99.90;;;;;;5010829;28;20051;-45
2021/01/23 08:51:37;;;;;;;32.08;17.02;;;3.40;99.90;;;;;;5011192;28;20116;-45
2021/01/23 08:54:03;;;;;;;27.45;15.25;;;3.40;99.90;;;;;;5010804;28;20228;-45
2021/01/23 08:56:29;;;;;;;29.67;16.35;;;3.50;99.90;;;;;;5009795;28;20042;-46
2021/01/23 08:58:54;;;;;;;32.45;16.50;;;3.50;99.90;;;;;;5010743;28;20163;-45
2021/01/23 09:01:20;;;;;;;28.17;15.57;;;3.60;99.90;;;;;;5010595;28;20506;-45
2021/01/23 09:03:45;;;;;;;28.92;15.68;;;3.60;99.90;;;;;;5010624;28;20022;-49
2021/01/23 09:06:11;;;;;;;27.25;15.13;;;3.60;99.90;;;;;;5009480;28;20502;-48
2021/01/23 09:08:37;;;;;;;29.40;16.45;;;3.60;99.90;;;;;;5003021;28;20030;-48
2021/01/23 09:11:02;;;;;;;30.98;15.57;;;3.70;99.90;;;;;;5006431;28;20084;-47
2021/01/23 09:13:28;;;;;;;24.52;15.00;;;3.70;99.90;;;;;;5009916;28;20044;-46
2021/01/23 09:15:54;;;;;;;25.70;15.85;;;3.80;99.90;;;;;;5026178;28;20064;-46
2021/01/23 09:18:20;;;;;;;32.10;17.98;;;3.90;99.90;;;;;;5030799;28;20087;-47
2021/01/23 09:20:45;;;;;;;29.63;16.00;;;3.90;99.90;;;;;;5030855;28;20450;-46
2021/01/23 09:23:10;;;;;;;27.50;15.02;;;3.90;99.90;;;;;;5017077;28;20022;-46
2021/01/23 09:25:36;;;;;;;26.50;15.23;;;3.90;99.90;;;;;;5009966;28;20030;-45
2021/01/23 09:28:02;;;;;;;26.15;15.25;;;4.00;99.90;;;;;;5025624;28;20076;-46
2021/01/23 09:30:27;;;;;;;27.00;14.73;;;4.10;99.90;;;;;;5030744;28;20026;-47
2021/01/23 09:32:53;;;;;;;24.55;13.77;;;4.10;99.90;;;;;;5030405;28;20048;-46
2021/01/23 09:35:18;;;;;;;28.42;15.05;;;4.20;99.90;;;;;;5030215;28;20040;-45
2021/01/23 09:37:44;;;;;;;24.35;13.95;;;4.20;99.90;;;;;;5030548;28;20471;-49
2021/01/23 09:40:10;;;;;;;22.10;14.35;;;4.20;99.90;;;;;;5030908;28;20034;-45
2021/01/23 09:42:35;;;;;;;27.45;16.25;;;4.30;99.90;;;;;;5029866;28;20029;-47
2021/01/23 09:45:01;;;;;;;21.98;13.20;;;4.30;99.90;;;;;;5029154;28;20097;-45
2021/01/23 09:47:26;;;;;;;21.45;12.93;;;4.40;99.90;;;;;;5030298;28;20029;-45
2021/01/23 09:49:52;;;;;;;26.02;13.90;;;4.40;99.90;;;;;;5030851;28;20036;-47
2021/01/23 09:52:18;;;;;;;24.38;14.75;;;4.50;99.90;;;;;;5030839;28;20467;-46
2021/01/23 09:54:43;;;;;;;25.95;15.10;;;4.60;99.90;;;;;;5030058;28;20030;-48
2021/01/23 09:57:09;;;;;;;24.65;14.23;;;4.60;99.90;;;;;;5030334;28;20033;-49
2021/01/23 09:59:34;;;;;;;26.60;15.18;;;4.70;99.90;;;;;;5030217;28;20507;-46
2021/01/23 10:02:00;;;;;;;27.73;14.93;;;4.80;99.90;;;;;;5028987;28;20464;-45
2021/01/23 10:04:27;;;;;;;28.30;15.20;;;4.90;99.90;;;;;;5030161;28;20029;-46
2021/01/23 10:06:53;;;;;;;25.80;14.95;;;4.90;99.90;;;;;;5030017;28;20409;-45
2021/01/23 10:09:20;;;;;;;22.27;14.35;;;5.00;99.90;;;;;;5012540;28;20120;-47
2021/01/23 10:11:47;;;;;;;24.05;14.70;;;5.10;99.90;;;;;;5030299;28;20026;-47
2021/01/23 10:14:13;;;;;;;22.02;13.30;;;5.20;99.90;;;;;;5029158;28;20059;-44
2021/01/23 10:16:39;;;;;;;31.30;14.82;;;5.30;99.90;;;;;;5019177;28;20026;-47
2021/01/23 10:19:04;;;;;;;28.13;14.32;;;5.40;99.90;;;;;;5012718;28;20037;-46
2021/01/23 10:21:30;;;;;;;28.05;15.15;;;5.50;99.90;;;;;;5029258;28;20029;-46
2021/01/23 10:23:59;;;;;;;27.92;14.07;;;5.50;99.90;;;;;;5029032;28;20022;-47
2021/01/23 10:26:25;;;;;;;28.77;15.40;;;5.50;99.90;;;;;;5028087;28;20105;-46
2021/01/23 10:28:51;;;;;;;24.30;12.85;;;5.60;99.90;;;;;;5028104;28;20025;-46
2021/01/23 10:31:16;;;;;;;31.17;13.73;;;5.70;99.90;;;;;;5028655;28;20501;-46
2021/01/23 10:33:42;;;;;;;21.88;13.15;;;5.80;99.90;;;;;;5028967;28;20021;-48
2021/01/23 10:36:07;;;;;;;29.45;13.75;;;6.00;99.90;;;;;;5028079;28;20124;-47
2021/01/23 10:38:33;;;;;;;26.65;14.50;;;6.00;99.90;;;;;;5028447;28;20698;-48
2021/01/23 10:40:58;;;;;;;22.10;12.90;;;6.10;99.90;;;;;;5028689;28;20116;-47
2021/01/23 10:43:24;;;;;;;25.35;12.38;;;6.20;99.90;;;;;;5028139;28;20383;-47
2021/01/23 10:45:49;;;;;;;24.33;13.40;;;6.30;99.90;;;;;;5027836;28;20029;-47
2021/01/23 10:48:15;;;;;;;23.85;13.63;;;6.30;99.90;;;;;;5028534;28;20025;-46
2021/01/23 10:50:40;;;;;;;19.67;12.18;;;6.30;99.90;;;;;;5028572;28;20024;-47
2021/01/23 10:53:06;;;;;;;23.88;13.32;;;6.30;99.90;;;;;;5028554;28;20501;-46
2021/01/23 10:55:31;;;;;;;20.85;10.70;;;6.40;99.90;;;;;;5027633;28;20467;-46
2021/01/23 10:57:57;;;;;;;24.00;13.23;;;6.40;99.90;;;;;;5028001;28;20068;-47
2021/01/23 11:00:23;;;;;;;24.65;13.38;;;6.30;99.90;;;;;;5028354;28;20030;-46
2021/01/23 11:02:48;;;;;;;26.02;14.45;;;6.30;99.90;;;;;;5028341;28;20036;-49
2021/01/23 11:05:14;;;;;;;28.40;13.60;;;6.40;99.90;;;;;;5027536;28;20029;-48
2021/01/23 11:07:39;;;;;;;25.73;14.82;;;6.50;99.90;;;;;;5028343;28;20026;-46
2021/01/23 11:10:05;;;;;;;19.38;11.93;;;6.60;99.90;;;;;;5028310;28;20391;-47
2021/01/23 11:12:30;;;;;;;27.83;13.48;;;6.70;99.90;;;;;;5028096;28;20021;-48
2021/01/23 11:14:56;;;;;;;28.38;14.70;;;6.80;99.90;;;;;;5027285;28;20029;-47
2021/01/23 11:17:21;;;;;;;33.58;14.75;;;6.90;99.90;;;;;;5028382;28;20086;-46
2021/01/23 11:19:47;;;;;;;28.77;14.93;;;7.00;99.90;;;;;;5028235;28;20056;-47
2021/01/23 11:22:12;;;;;;;21.40;13.40;;;6.90;99.90;;;;;;5028236;28;20063;-47
2021/01/23 11:24:40;;;;;;;22.85;14.43;;;6.90;99.90;;;;;;5027461;28;20497;-47
2021/01/23 11:27:06;;;;;;;28.73;14.55;;;7.00;99.90;;;;;;5028035;28;20153;-47
2021/01/23 11:29:31;;;;;;;22.00;12.50;;;7.10;99.90;;;;;;5028180;28;20109;-47
2021/01/23 11:31:57;;;;;;;29.40;14.52;;;7.20;99.90;;;;;;5028248;28;20026;-48
2021/01/23 11:34:22;;;;;;;28.45;13.30;;;7.20;99.90;;;;;;5027851;28;20416;-47
2021/01/23 11:36:47;;;;;;;27.40;13.68;;;7.20;99.90;;;;;;5028217;28;20309;-48
2021/01/23 11:39:13;;;;;;;19.83;12.82;;;7.30;99.90;;;;;;5028407;28;20021;-47
2021/01/23 11:41:39;;;;;;;23.00;13.13;;;7.40;99.90;;;;;;5027955;28;20108;-46
2021/01/23 11:44:05;;;;;;;20.75;12.27;;;7.50;99.90;;;;;;5027820;28;20022;-49
2021/01/23 11:46:31;;;;;;;24.58;13.45;;;7.40;99.90;;;;;;5027576;28;20107;-47
2021/01/23 11:48:56;;;;;;;21.52;11.65;;;7.60;99.90;;;;;;5026446;28;20053;-47
2021/01/23 11:51:23;;;;;;;18.50;11.85;;;7.90;99.90;;;;;;5027897;28;20025;-49
2021/01/23 11:53:48;;;;;;;22.17;13.00;;;8.00;99.90;;;;;;5028003;28;20022;-48
2021/01/23 11:56:14;;;;;;;20.52;11.55;;;8.40;99.90;;;;;;5027339;28;20104;-48
2021/01/23 11:58:41;;;;;;;18.50;12.13;;;8.60;99.90;;;;;;5027507;28;20112;-49
2021/01/23 12:01:07;;;;;;;15.60;10.27;;;8.80;99.90;;;;;;5027980;28;20526;-47
2021/01/23 12:03:32;;;;;;;17.33;10.45;;;9.00;99.90;;;;;;5027890;28;20096;-47
2021/01/23 12:05:58;;;;;;;20.83;10.20;;;9.40;98.20;;;;;;5027805;28;20030;-47
2021/01/23 12:08:23;;;;;;;14.98;9.63;;;9.60;94.80;;;;;;5031369;28;20106;-46
2021/01/23 12:10:49;;;;;;;14.98;9.13;;;10.40;94.00;;;;;;5031130;28;20470;-47
2021/01/23 12:13:14;;;;;;;16.23;10.32;;;10.90;91.70;;;;;;5031045;28;20029;-47
2021/01/23 12:15:40;;;;;;;12.90;8.80;;;11.20;81.90;;;;;;5013141;28;20028;-48
2021/01/23 12:18:06;;;;;;;14.73;9.07;;;11.30;82.60;;;;;;5031200;28;20091;-47
2021/01/23 12:20:33;;;;;;;18.30;10.43;;;12.10;78.30;;;;;;5031310;28;20120;-47
2021/01/23 12:22:59;;;;;;;17.00;8.88;;;12.20;69.90;;;;;;5031325;28;20463;-50
2021/01/23 12:25:26;;;;;;;15.45;9.90;;;11.90;73.80;;;;;;5030328;28;20108;-48
2021/01/23 12:27:51;;;;;;;18.67;10.63;;;12.20;70.60;;;;;;5031317;28;20014;-50
2021/01/23 12:30:18;;;;;;;18.13;9.02;;;12.60;69.80;;;;;;5030875;28;20435;-47
2021/01/23 12:32:44;;;;;;;14.38;8.90;;;12.80;68.50;;;;;;5030785;28;20079;-46
2021/01/23 12:35:10;;;;;;;17.75;9.70;;;13.00;66.30;;;;;;5030338;28;20037;-48
2021/01/23 12:37:37;;;;;;;14.43;9.75;;;12.70;66.20;;;;;;5030419;28;20030;-48
2021/01/23 12:40:04;;;;;;;14.50;8.85;;;12.40;66.70;;;;;;5030778;28;20036;-47
2021/01/23 12:42:30;;;;;;;13.95;7.70;;;12.40;68.00;;;;;;5030802;28;20025;-47
2021/01/23 12:44:55;;;;;;;13.65;8.07;;;12.60;66.90;;;;;;5029755;28;20107;-46